createdAt,value
2019-02-07T00:01:09.452Z,-5.05
2019-02-07T00:03:42.016Z,-5.05
2019-02-07T00:06:14.293Z,-5.08
2019-02-07T00:08:47.049Z,-5.13
2019-02-07T00:11:19.394Z,-5.16
2019-02-07T00:13:52.035Z,-5.18
2019-02-07T00:16:23.407Z,-5.13
2019-02-07T00:18:55.755Z,-5.15
2019-02-07T00:21:28.499Z,-5.20
2019-02-07T00:24:01.105Z,-5.22
2019-02-07T00:26:33.584Z,-5.21
2019-02-07T00:29:06.864Z,-5.24
2019-02-07T00:31:39.239Z,-5.28
2019-02-07T00:34:11.727Z,-5.26
2019-02-07T00:36:44.168Z,-5.25
2019-02-07T00:39:16.558Z,-5.25
2019-02-07T00:41:49.358Z,-5.24
2019-02-07T00:44:21.705Z,-5.25
2019-02-07T00:46:54.161Z,-5.21
2019-02-07T00:49:26.873Z,-5.21
2019-02-07T00:51:59.610Z,-5.22
2019-02-07T00:54:31.963Z,-5.26
2019-02-07T00:57:04.664Z,-5.27
2019-02-07T00:59:37.071Z,-5.27
2019-02-07T01:02:10.550Z,-5.33
2019-02-07T01:04:42.821Z,-5.39
2019-02-07T01:07:15.694Z,-5.44
2019-02-07T01:09:49.686Z,-5.53
2019-02-07T01:12:21.924Z,-5.54
2019-02-07T01:15:01.660Z,-5.57
2019-02-07T01:17:28.867Z,-5.63
2019-02-07T01:20:01.401Z,-5.63
2019-02-07T01:22:33.843Z,-5.66
2019-02-07T01:25:09.185Z,-5.67
2019-02-07T01:27:41.594Z,-5.66
2019-02-07T01:30:17.288Z,-5.71
2019-02-07T01:32:49.410Z,-5.70
2019-02-07T01:35:21.923Z,-5.70
2019-02-07T01:37:54.819Z,-5.73
2019-02-07T01:40:27.199Z,-5.74
2019-02-07T01:42:59.565Z,-5.77
2019-02-07T01:45:31.982Z,-5.78
2019-02-07T01:48:04.640Z,-5.80
2019-02-07T01:50:37.077Z,-5.80
2019-02-07T01:53:10.053Z,-5.84
2019-02-07T01:55:41.421Z,-5.84
2019-02-07T01:58:15.230Z,-5.76
2019-02-07T02:00:47.558Z,-5.71
2019-02-07T02:03:20.212Z,-5.64
2019-02-07T02:05:52.555Z,-5.59
2019-02-07T02:08:24.651Z,-5.51
2019-02-07T02:10:57.099Z,-5.51
2019-02-07T02:13:30.797Z,-5.42
2019-02-07T02:16:03.058Z,-5.36
2019-02-07T02:18:35.433Z,-5.37
2019-02-07T02:21:08.111Z,-5.38
2019-02-07T02:23:40.750Z,-5.34
2019-02-07T02:26:13.961Z,-5.25
2019-02-07T02:28:46.655Z,-5.24
2019-02-07T02:31:19.146Z,-5.23
2019-02-07T02:33:51.514Z,-5.21
2019-02-07T02:36:24.260Z,-5.24
2019-02-07T02:38:56.700Z,-5.19
2019-02-07T02:41:29.139Z,-5.16
2019-02-07T02:44:01.510Z,-5.15
2019-02-07T02:46:33.853Z,-5.22
2019-02-07T02:49:06.524Z,-5.17
2019-02-07T02:51:38.863Z,-5.14
2019-02-07T02:54:29.902Z,-5.12
2019-02-07T02:57:02.295Z,-5.13
2019-02-07T02:59:35.146Z,-5.06
2019-02-07T03:02:25.177Z,-5.05
2019-02-07T03:05:14.742Z,-5.06
2019-02-07T03:08:04.586Z,-5.05
2019-02-07T03:10:55.553Z,-5.06
2019-02-07T03:14:01.629Z,-4.98
2019-02-07T03:17:01.813Z,-4.99
2019-02-07T03:19:54.045Z,-4.99
2019-02-07T03:22:52.666Z,-5.02
2019-02-07T03:25:42.349Z,-4.99
2019-02-07T03:28:29.852Z,-5.01
2019-02-07T03:31:19.652Z,-4.91
2019-02-07T03:34:09.508Z,-4.94
2019-02-07T03:36:57.231Z,-4.88
2019-02-07T03:39:55.656Z,-4.82
2019-02-07T03:42:45.288Z,-4.79
2019-02-07T03:45:35.206Z,-4.99
2019-02-07T03:48:26.191Z,-4.87
2019-02-07T03:51:17.116Z,-4.83
2019-02-07T03:54:07.097Z,-4.79
2019-02-07T03:56:57.191Z,-4.81
2019-02-07T03:59:48.137Z,-4.80
2019-02-07T04:02:48.170Z,-4.86
2019-02-07T04:05:54.479Z,-4.85
2019-02-07T04:08:44.962Z,-4.79
2019-02-07T04:11:34.762Z,-4.73
2019-02-07T04:14:25.474Z,-4.77
2019-02-07T04:17:16.410Z,-4.81
2019-02-07T04:20:07.364Z,-4.85
2019-02-07T04:22:55.681Z,-4.89
2019-02-07T04:26:02.070Z,-4.82
2019-02-07T04:28:43.618Z,-4.74
2019-02-07T04:31:37.760Z,-4.69
2019-02-07T04:34:28.817Z,-4.71
2019-02-07T04:37:19.838Z,-4.63
2019-02-07T04:40:17.224Z,-4.60
2019-02-07T04:43:11.325Z,-4.77
2019-02-07T04:45:54.202Z,-4.69
2019-02-07T04:48:48.604Z,-4.67
2019-02-07T04:51:46.003Z,-4.66
2019-02-07T04:54:40.360Z,-4.58
2019-02-07T04:57:34.329Z,-4.62
2019-02-07T05:00:44.562Z,-4.56
2019-02-07T05:03:40.311Z,-4.54
2019-02-07T05:06:31.262Z,-4.60
2019-02-07T05:09:37.592Z,-4.60
2019-02-07T05:12:34.935Z,-4.56
2019-02-07T05:15:21.651Z,-4.48
2019-02-07T05:18:11.874Z,-4.38
2019-02-07T05:21:03.175Z,-4.41
2019-02-07T05:24:00.005Z,-4.42
2019-02-07T05:27:06.232Z,-4.39
2019-02-07T05:29:51.315Z,-4.48
2019-02-07T05:32:37.808Z,-4.47
2019-02-07T05:35:39.988Z,-4.42
2019-02-07T05:38:36.963Z,-4.45
2019-02-07T05:41:28.067Z,-4.44
2019-02-07T05:44:22.203Z,-4.36
2019-02-07T05:47:38.042Z,-4.33
2019-02-07T05:50:30.348Z,-4.32
2019-02-07T05:53:20.249Z,-4.29
2019-02-07T05:56:11.216Z,-4.30
2019-02-07T05:59:04.957Z,-4.24
2019-02-07T06:01:48.202Z,-4.26
2019-02-07T06:04:42.377Z,-4.28
2019-02-07T06:07:34.502Z,-4.30
2019-02-07T06:10:27.110Z,-4.23
2019-02-07T06:13:36.468Z,-4.27
2019-02-07T06:16:33.348Z,-4.29
2019-02-07T06:19:15.304Z,-4.30
2019-02-07T06:22:12.715Z,-4.18
2019-02-07T06:25:02.814Z,-4.19
2019-02-07T06:27:56.619Z,-4.23
2019-02-07T06:30:43.419Z,-4.25
2019-02-07T06:33:34.266Z,-4.32
2019-02-07T06:36:25.647Z,-4.26
2019-02-07T06:39:12.974Z,-4.20
2019-02-07T06:42:03.061Z,-4.13
2019-02-07T06:45:13.325Z,-4.16
2019-02-07T06:48:04.372Z,-4.19
2019-02-07T06:50:58.019Z,-4.33
2019-02-07T06:53:47.809Z,-4.29
2019-02-07T06:56:48.239Z,-4.27
2019-02-07T06:59:57.589Z,-4.28
2019-02-07T07:02:47.435Z,-4.24
2019-02-07T07:05:37.128Z,-4.21
2019-02-07T07:08:46.790Z,-4.17
2019-02-07T07:11:43.990Z,-4.27
2019-02-07T07:14:34.922Z,-4.19
2019-02-07T07:17:25.891Z,-4.15
2019-02-07T07:20:21.997Z,-4.13
2019-02-07T07:23:22.469Z,-4.06
2019-02-07T07:26:12.647Z,-4.01
2019-02-07T07:29:09.907Z,-4.00
2019-02-07T07:32:16.359Z,-4.00
2019-02-07T07:35:01.849Z,-4.08
2019-02-07T07:37:58.418Z,-3.92
2019-02-07T07:41:04.563Z,-3.84
2019-02-07T07:43:54.596Z,-3.87
2019-02-07T07:46:44.794Z,-3.84
2019-02-07T07:49:32.377Z,-3.71
2019-02-07T07:52:39.723Z,-3.73
2019-02-07T07:55:33.429Z,-3.76
2019-02-07T07:58:11.965Z,-3.70
2019-02-07T08:01:15.564Z,-3.76
2019-02-07T08:04:19.056Z,-3.75
2019-02-07T08:07:16.605Z,-3.69
2019-02-07T08:10:07.412Z,-3.60
2019-02-07T08:12:57.605Z,-3.56
2019-02-07T08:15:57.864Z,-3.56
2019-02-07T08:18:55.420Z,-3.59
2019-02-07T08:21:35.860Z,-3.65
2019-02-07T08:24:28.530Z,-3.49
2019-02-07T08:27:19.754Z,-3.48
2019-02-07T08:30:09.401Z,-3.55
2019-02-07T08:32:59.441Z,-3.44
2019-02-07T08:35:49.748Z,-3.39
2019-02-07T08:38:39.691Z,-3.35
2019-02-07T08:41:30.677Z,-3.31
2019-02-07T08:44:24.386Z,-3.28
2019-02-07T08:47:15.309Z,-3.32
2019-02-07T08:50:06.865Z,-3.24
2019-02-07T08:53:06.888Z,-3.23
2019-02-07T08:56:07.360Z,-3.14
2019-02-07T08:59:08.051Z,-2.99
2019-02-07T09:02:11.385Z,-3.08
2019-02-07T09:05:15.891Z,-2.96
2019-02-07T09:08:06.903Z,-2.83
2019-02-07T09:11:04.308Z,-2.95
2019-02-07T09:14:07.793Z,-2.87
2019-02-07T09:17:00.172Z,-2.85
2019-02-07T09:19:54.756Z,-2.85
2019-02-07T09:22:51.909Z,-2.99
2019-02-07T09:25:45.858Z,-2.63
2019-02-07T09:28:35.919Z,-2.72
2019-02-07T09:31:39.301Z,-2.68
2019-02-07T09:34:30.637Z,-2.48
2019-02-07T09:37:27.589Z,-2.59
2019-02-07T09:40:32.073Z,-2.48
2019-02-07T09:43:32.075Z,-2.44
2019-02-07T09:46:25.487Z,-2.41
2019-02-07T09:49:15.790Z,-2.16
2019-02-07T09:51:56.037Z,-2.27
2019-02-07T09:54:45.942Z,-2.02
2019-02-07T09:57:37.121Z,-2.15
2019-02-07T10:00:34.270Z,-2.19
2019-02-07T10:03:27.838Z,-2.25
2019-02-07T10:06:19.364Z,-1.86
2019-02-07T10:09:08.426Z,-1.86
2019-02-07T10:12:05.326Z,-1.75
2019-02-07T10:14:55.441Z,-1.73
2019-02-07T10:18:04.835Z,-1.57
2019-02-07T10:20:54.271Z,-1.51
2019-02-07T10:23:44.130Z,-1.49
2019-02-07T10:26:32.200Z,-1.49
2019-02-07T10:29:32.198Z,-1.48
2019-02-07T10:32:29.388Z,-1.40
2019-02-07T10:35:22.828Z,-1.28
2019-02-07T10:38:22.319Z,-1.37
2019-02-07T10:41:26.018Z,-1.09
2019-02-07T10:44:08.118Z,-1.28
2019-02-07T10:46:59.065Z,-1.02
2019-02-07T10:49:58.649Z,-0.71
2019-02-07T10:52:40.869Z,-0.47
2019-02-07T10:55:30.904Z,-0.55
2019-02-07T10:58:25.689Z,-0.75
2019-02-07T11:01:23.101Z,-0.61
2019-02-07T11:04:10.552Z,-0.86
2019-02-07T11:06:51.479Z,-0.69
2019-02-07T11:09:48.959Z,-0.52
2019-02-07T11:12:39.974Z,-0.50
2019-02-07T11:15:26.267Z,-0.36
2019-02-07T11:18:16.006Z,-0.25
2019-02-07T11:21:05.863Z,-0.17
2019-02-07T11:24:16.964Z,-0.05
2019-02-07T11:27:14.027Z,-0.15
2019-02-07T11:30:03.864Z,-0.15
2019-02-07T11:32:51.378Z,0.25
2019-02-07T11:35:42.907Z,-0.07
2019-02-07T11:38:35.628Z,-0.06
2019-02-07T11:41:36.904Z,-0.10
2019-02-07T11:44:30.904Z,-0.36
2019-02-07T11:47:27.943Z,-0.20
2019-02-07T11:50:37.333Z,-0.37
2019-02-07T11:53:31.792Z,-0.28
2019-02-07T11:56:22.974Z,-0.40
2019-02-07T11:59:17.152Z,-0.33
2019-02-07T12:02:09.205Z,-0.06
2019-02-07T12:05:12.284Z,-0.28
2019-02-07T12:07:58.960Z,-0.40
2019-02-07T12:11:05.387Z,-0.36
2019-02-07T12:13:49.410Z,-0.35
2019-02-07T12:16:49.716Z,-0.36
2019-02-07T12:19:37.314Z,-0.14
2019-02-07T12:22:17.288Z,-0.22
2019-02-07T12:25:17.068Z,-0.06
2019-02-07T12:28:07.032Z,0.01
2019-02-07T12:30:56.905Z,0.20
2019-02-07T12:34:00.318Z,0.08
2019-02-07T12:36:45.448Z,0.03
2019-02-07T12:39:24.681Z,-0.02
2019-02-07T12:42:05.429Z,0.03
2019-02-07T12:45:00.641Z,0.03
2019-02-07T12:48:06.707Z,0.03
2019-02-07T12:51:02.856Z,0.06
2019-02-07T12:53:48.246Z,0.15
2019-02-07T12:56:35.700Z,0.20
2019-02-07T12:59:34.764Z,0.30
2019-02-07T13:02:41.999Z,0.31
2019-02-07T13:05:39.707Z,0.29
2019-02-07T13:08:33.717Z,0.10
2019-02-07T13:11:25.436Z,0.01
2019-02-07T13:14:04.764Z,0.08
2019-02-07T13:16:57.063Z,0.11
2019-02-07T13:19:42.676Z,0.18
2019-02-07T13:22:32.754Z,0.30
2019-02-07T13:25:22.818Z,0.22
2019-02-07T13:28:23.234Z,0.15
2019-02-07T13:31:09.556Z,0.13
2019-02-07T13:34:06.866Z,0.19
2019-02-07T13:36:57.901Z,0.11
2019-02-07T13:39:57.292Z,0.11
2019-02-07T13:42:40.522Z,0.09
2019-02-07T13:45:30.795Z,0.08
2019-02-07T13:48:31.033Z,0.06
2019-02-07T13:51:21.039Z,0.12
2019-02-07T13:54:12.083Z,0.13
2019-02-07T13:57:11.915Z,0.12
2019-02-07T14:00:23.410Z,0.30
2019-02-07T14:03:14.100Z,0.20
2019-02-07T14:06:20.174Z,0.16
2019-02-07T14:09:17.904Z,0.04
2019-02-07T14:12:18.596Z,0.15
2019-02-07T14:15:08.714Z,0.16
2019-02-07T14:18:08.728Z,0.09
2019-02-07T14:21:03.295Z,0.12
2019-02-07T14:23:51.776Z,0.14
2019-02-07T14:26:57.972Z,0.17
2019-02-07T14:29:39.424Z,0.12
2019-02-07T14:32:37.185Z,0.13
2019-02-07T14:35:29.135Z,0.14
2019-02-07T14:38:18.010Z,0.19
2019-02-07T14:41:12.026Z,0.17
2019-02-07T14:44:03.243Z,0.16
2019-02-07T14:46:48.302Z,0.23
2019-02-07T14:49:20.789Z,0.27
2019-02-07T14:51:53.146Z,0.29
2019-02-07T14:54:25.216Z,0.24
2019-02-07T14:56:57.282Z,0.20
2019-02-07T14:59:29.937Z,0.19
2019-02-07T15:02:02.263Z,0.20
2019-02-07T15:04:35.181Z,0.23
2019-02-07T15:07:07.898Z,0.26
2019-02-07T15:09:40.255Z,0.28
2019-02-07T15:12:12.743Z,0.25
2019-02-07T15:14:45.408Z,0.28
2019-02-07T15:17:18.042Z,0.31
2019-02-07T15:19:50.544Z,0.29
2019-02-07T15:22:24.550Z,0.32
2019-02-07T15:24:56.910Z,0.35
2019-02-07T15:27:28.973Z,0.38
2019-02-07T15:30:01.049Z,0.39
2019-02-07T15:32:33.127Z,0.40
2019-02-07T15:35:08.009Z,0.37
2019-02-07T15:37:40.106Z,0.42
2019-02-07T15:40:17.151Z,0.41
2019-02-07T15:42:49.346Z,0.45
2019-02-07T15:45:22.389Z,0.51
2019-02-07T15:47:54.741Z,0.48
2019-02-07T15:50:37.570Z,0.49
2019-02-07T15:53:02.244Z,0.49
2019-02-07T15:55:34.409Z,0.50
2019-02-07T15:58:06.961Z,0.51
2019-02-07T16:00:51.383Z,0.50
2019-02-07T16:03:48.805Z,0.49
2019-02-07T16:06:20.933Z,0.49
2019-02-07T16:08:53.064Z,0.49
2019-02-07T16:11:25.128Z,0.49
2019-02-07T16:13:57.591Z,0.50
2019-02-07T16:16:30.013Z,0.54
2019-02-07T16:19:02.381Z,0.53
2019-02-07T16:21:34.426Z,0.55
2019-02-07T16:24:07.342Z,0.54
2019-02-07T16:26:39.693Z,0.53
2019-02-07T16:29:12.544Z,0.55
2019-02-07T16:31:44.887Z,0.55
2019-02-07T16:34:18.876Z,0.55
2019-02-07T16:36:51.563Z,0.56
2019-02-07T16:39:25.405Z,0.57
2019-02-07T16:42:05.843Z,0.58
2019-02-07T16:44:32.080Z,0.57
2019-02-07T16:47:04.773Z,0.56
2019-02-07T16:49:37.158Z,0.57
2019-02-07T16:52:09.205Z,0.55
2019-02-07T16:54:41.697Z,0.58
2019-02-07T16:57:14.418Z,0.59
2019-02-07T16:59:46.483Z,0.59
2019-02-07T17:02:19.100Z,0.60
2019-02-07T17:04:51.166Z,0.63
2019-02-07T17:07:23.311Z,0.63
2019-02-07T17:09:56.183Z,0.64
2019-02-07T17:12:28.524Z,0.66
2019-02-07T17:15:00.691Z,0.69
2019-02-07T17:17:38.151Z,0.70
2019-02-07T17:20:17.998Z,0.71
2019-02-07T17:22:50.044Z,0.73
2019-02-07T17:25:22.531Z,0.78
2019-02-07T17:27:54.977Z,0.76
2019-02-07T17:30:27.837Z,0.78
2019-02-07T17:33:00.309Z,0.81
2019-02-07T17:35:32.868Z,0.80
2019-02-07T17:38:08.663Z,0.81
2019-02-07T17:40:40.041Z,0.83
2019-02-07T17:43:12.549Z,0.86
2019-02-07T17:45:44.744Z,0.85
2019-02-07T17:48:16.785Z,0.85
2019-02-07T17:50:49.298Z,0.85
2019-02-07T17:53:22.196Z,0.86
2019-02-07T17:55:54.865Z,0.88
2019-02-07T17:58:26.966Z,0.87
2019-02-07T18:01:05.672Z,0.89
2019-02-07T18:03:37.943Z,0.89
2019-02-07T18:06:11.657Z,0.92
2019-02-07T18:08:43.957Z,0.91
2019-02-07T18:11:16.654Z,0.90
2019-02-07T18:13:49.312Z,0.89
2019-02-07T18:16:21.718Z,0.89
2019-02-07T18:18:54.435Z,0.88
2019-02-07T18:21:33.963Z,0.92
2019-02-07T18:24:00.290Z,0.89
2019-02-07T18:26:33.097Z,0.89
2019-02-07T18:29:05.659Z,0.93
2019-02-07T18:31:38.283Z,0.93
2019-02-07T18:34:10.414Z,0.94
2019-02-07T18:36:42.627Z,0.93
2019-02-07T18:39:15.241Z,0.99
2019-02-07T18:41:48.042Z,1.00
2019-02-07T18:44:20.492Z,0.98
2019-02-07T18:46:53.303Z,1.05
2019-02-07T18:49:26.795Z,1.04
2019-02-07T18:51:59.223Z,1.04
2019-02-07T18:54:31.891Z,1.03
2019-02-07T18:57:04.751Z,1.03
2019-02-07T18:59:37.438Z,1.05
2019-02-07T19:02:10.137Z,0.96
2019-02-07T19:04:42.645Z,0.99
2019-02-07T19:07:15.413Z,0.94
2019-02-07T19:09:48.259Z,0.98
2019-02-07T19:12:21.231Z,0.98
2019-02-07T19:14:53.996Z,1.02
2019-02-07T19:17:26.652Z,1.00
2019-02-07T19:19:59.628Z,0.96
2019-02-07T19:22:32.015Z,0.93
2019-02-07T19:25:04.449Z,0.92
2019-02-07T19:27:36.798Z,0.91
2019-02-07T19:30:17.481Z,0.90
2019-02-07T19:32:49.808Z,0.83
2019-02-07T19:35:22.206Z,0.78
2019-02-07T19:37:54.734Z,0.80
2019-02-07T19:40:27.082Z,0.79
2019-02-07T19:43:00.199Z,0.70
2019-02-07T19:45:33.044Z,0.69
2019-02-07T19:48:05.791Z,0.64
2019-02-07T19:50:38.208Z,0.66
2019-02-07T19:53:11.265Z,0.63
2019-02-07T19:55:42.518Z,0.61
2019-02-07T19:58:14.516Z,0.59
2019-02-07T20:00:46.722Z,0.52
2019-02-07T20:03:19.146Z,0.49
2019-02-07T20:05:51.429Z,0.51
2019-02-07T20:08:24.336Z,0.68
2019-02-07T20:10:57.324Z,0.56
2019-02-07T20:13:29.699Z,0.69
2019-02-07T20:16:02.132Z,0.67
2019-02-07T20:18:34.850Z,0.64
2019-02-07T20:21:07.539Z,0.66
2019-02-07T20:23:40.012Z,0.67
2019-02-07T20:26:12.616Z,0.48
2019-02-07T20:28:44.969Z,0.64
2019-02-07T20:31:17.117Z,0.61
2019-02-07T20:33:50.189Z,0.63
2019-02-07T20:36:22.541Z,0.46
2019-02-07T20:38:55.350Z,0.43
2019-02-07T20:41:27.737Z,0.34
2019-02-07T20:44:00.180Z,0.27
2019-02-07T20:46:33.291Z,0.20
2019-02-07T20:49:05.838Z,0.20
2019-02-07T20:51:38.625Z,0.36
2019-02-07T20:54:10.997Z,0.34
2019-02-07T20:56:43.710Z,0.26
2019-02-07T20:59:16.243Z,0.24
2019-02-07T21:01:48.453Z,0.31
2019-02-07T21:04:20.934Z,0.19
2019-02-07T21:06:53.569Z,0.19
2019-02-07T21:09:25.976Z,0.24
2019-02-07T21:11:58.794Z,0.14
2019-02-07T21:14:31.122Z,0.06
2019-02-07T21:17:03.820Z,0.15
2019-02-07T21:19:36.173Z,0.07
2019-02-07T21:22:45.455Z,0.07
2019-02-07T21:25:22.814Z,0.10
2019-02-07T21:27:54.983Z,-0.08
2019-02-07T21:30:30.432Z,0.02
2019-02-07T21:33:02.559Z,0.14
2019-02-07T21:35:34.640Z,0.28
2019-02-07T21:38:07.406Z,0.24
2019-02-07T21:40:39.918Z,0.31
2019-02-07T21:43:12.520Z,0.09
2019-02-07T21:45:44.913Z,0.07
2019-02-07T21:48:16.994Z,-0.03
2019-02-07T21:50:49.087Z,-0.23
2019-02-07T21:53:21.234Z,-0.11
2019-02-07T21:55:53.773Z,-0.29
2019-02-07T21:58:26.195Z,0.32
2019-02-07T22:00:58.901Z,0.20
2019-02-07T22:03:31.548Z,0.35
2019-02-07T22:06:03.930Z,0.10
2019-02-07T22:08:36.077Z,0.01
2019-02-07T22:11:08.434Z,0.22
2019-02-07T22:13:40.684Z,0.35
2019-02-07T22:16:13.036Z,0.37
2019-02-07T22:18:45.139Z,0.21
2019-02-07T22:21:17.894Z,-0.16
2019-02-07T22:23:50.030Z,-0.21
2019-02-07T22:26:22.107Z,-0.21
2019-02-07T22:28:54.543Z,0.12
2019-02-07T22:31:27.243Z,0.02
2019-02-07T22:33:59.823Z,-0.02
2019-02-07T22:36:31.888Z,-0.08
2019-02-07T22:39:06.541Z,-0.17
2019-02-07T22:41:38.591Z,-0.08
2019-02-07T22:44:10.694Z,-0.08
2019-02-07T22:46:42.793Z,-0.30
2019-02-07T22:49:14.840Z,-0.53
2019-02-07T22:51:46.908Z,-0.49
2019-02-07T22:54:19.054Z,-0.75
2019-02-07T22:56:51.472Z,-0.52
2019-02-07T22:59:23.936Z,-0.12
2019-02-07T23:01:58.545Z,-0.51
2019-02-07T23:04:31.643Z,-0.25
2019-02-07T23:07:03.693Z,-0.42
2019-02-07T23:09:36.298Z,-0.44
2019-02-07T23:12:08.770Z,-0.43
2019-02-07T23:14:41.120Z,-0.39
2019-02-07T23:17:13.160Z,-0.27
2019-02-07T23:19:45.341Z,-0.38
2019-02-07T23:22:18.157Z,-0.68
2019-02-07T23:24:50.569Z,-0.97
2019-02-07T23:27:23.023Z,-1.08
2019-02-07T23:29:55.484Z,-1.13
2019-02-07T23:32:27.883Z,-0.90
2019-02-07T23:35:00.265Z,-1.17
2019-02-07T23:37:32.979Z,-1.17
2019-02-07T23:40:07.097Z,-1.21
2019-02-07T23:42:39.252Z,-1.15
2019-02-07T23:45:12.067Z,-1.47
2019-02-07T23:47:44.482Z,-1.49
2019-02-07T23:50:17.140Z,-1.48
2019-02-07T23:52:49.618Z,-1.60
2019-02-07T23:55:21.971Z,-1.63
2019-02-07T23:57:54.276Z,-1.52
